createdAt,value
2018-11-10T00:00:00.422Z,928.85
2018-11-10T00:01:00.479Z,928.80
2018-11-10T00:02:00.522Z,928.82
2018-11-10T00:03:00.558Z,928.83
2018-11-10T00:04:00.632Z,928.83
2018-11-10T00:05:00.643Z,928.88
2018-11-10T00:06:00.665Z,928.79
2018-11-10T00:07:00.773Z,928.85
2018-11-10T00:08:00.802Z,928.90
2018-11-10T00:09:00.833Z,928.83
2018-11-10T00:10:00.964Z,928.90
2018-11-10T00:11:00.884Z,928.88
2018-11-10T00:12:00.937Z,928.89
2018-11-10T00:13:00.999Z,928.89
2018-11-10T00:14:01.014Z,928.88
2018-11-10T00:15:01.101Z,928.85
2018-11-10T00:16:01.107Z,928.90
2018-11-10T00:17:01.177Z,928.89
2018-11-10T00:18:01.227Z,928.89
2018-11-10T00:19:01.260Z,928.87
2018-11-10T00:20:01.395Z,928.85
2018-11-10T00:21:01.339Z,928.90
2018-11-10T00:22:01.389Z,929.01
2018-11-10T00:23:01.431Z,928.92
2018-11-10T00:24:01.484Z,928.98
2018-11-10T00:25:01.567Z,928.87
2018-11-10T00:26:01.571Z,928.99
2018-11-10T00:27:01.606Z,928.95
2018-11-10T00:28:01.641Z,929.03
2018-11-10T00:29:01.716Z,928.99
2018-11-10T00:30:01.729Z,929.03
2018-11-10T00:31:01.870Z,928.96
2018-11-10T00:32:01.835Z,928.96
2018-11-10T00:33:01.876Z,929.02
2018-11-10T00:34:01.904Z,929.08
2018-11-10T00:35:01.960Z,929.16
2018-11-10T00:36:02.005Z,929.02
2018-11-10T00:37:02.049Z,929.02
2018-11-10T00:38:02.111Z,929.11
2018-11-10T00:39:02.139Z,929.09
2018-11-10T00:40:02.186Z,929.05
2018-11-10T00:41:02.238Z,929.09
2018-11-10T00:42:02.271Z,929.10
2018-11-10T00:43:02.313Z,929.13
2018-11-10T00:44:02.359Z,929.12
2018-11-10T00:45:02.401Z,929.16
2018-11-10T00:46:02.486Z,929.24
2018-11-10T00:47:02.602Z,929.09
2018-11-10T00:48:02.531Z,929.05
2018-11-10T00:49:02.557Z,929.06
2018-11-10T00:50:02.616Z,929.08
2018-11-10T00:51:02.674Z,929.05
2018-11-10T00:52:02.698Z,929.10
2018-11-10T00:53:02.753Z,929.12
2018-11-10T00:54:02.778Z,929.11
2018-11-10T00:55:02.853Z,929.06
2018-11-10T00:56:02.888Z,929.00
2018-11-10T00:57:02.930Z,929.07
2018-11-10T00:58:02.978Z,929.05
2018-11-10T00:59:03.045Z,929.10
2018-11-10T01:00:03.104Z,929.08
2018-11-10T01:01:03.114Z,929.04
2018-11-10T01:02:03.138Z,928.99
2018-11-10T01:03:03.177Z,929.00
2018-11-10T01:04:03.346Z,929.07
2018-11-10T01:05:03.281Z,928.96
2018-11-10T01:06:03.329Z,929.10
2018-11-10T01:07:03.355Z,929.01
2018-11-10T01:08:03.472Z,928.97
2018-11-10T01:09:03.471Z,929.03
2018-11-10T01:10:03.511Z,929.04
2018-11-10T01:11:03.565Z,929.06
2018-11-10T01:12:03.593Z,928.98
2018-11-10T01:13:03.641Z,929.00
2018-11-10T01:14:03.787Z,928.95
2018-11-10T01:15:03.733Z,928.91
2018-11-10T01:16:03.772Z,928.92
2018-11-10T01:17:03.811Z,929.00
2018-11-10T01:18:03.870Z,928.96
2018-11-10T01:19:03.900Z,928.94
2018-11-10T01:20:03.944Z,928.88
2018-11-10T01:21:04.007Z,928.95
2018-11-10T01:22:04.046Z,928.90
2018-11-10T01:23:04.107Z,928.93
2018-11-10T01:24:04.138Z,928.91
2018-11-10T01:25:04.166Z,929.06
2018-11-10T01:26:04.190Z,928.88
2018-11-10T01:27:04.246Z,928.96
2018-11-10T01:28:04.388Z,928.93
2018-11-10T01:29:04.323Z,928.95
2018-11-10T01:30:04.367Z,928.91
2018-11-10T01:31:04.429Z,928.95
2018-11-10T01:32:04.468Z,928.92
2018-11-10T01:33:04.548Z,928.94
2018-11-10T01:34:04.545Z,928.90
2018-11-10T01:35:04.592Z,928.94
2018-11-10T01:36:04.648Z,928.94
2018-11-10T01:37:04.690Z,928.87
2018-11-10T01:38:04.764Z,928.87
2018-11-10T01:39:04.769Z,928.90
2018-11-10T01:40:04.842Z,928.79
2018-11-10T01:41:04.862Z,928.84
2018-11-10T01:42:04.911Z,928.82
2018-11-10T01:43:04.963Z,928.87
2018-11-10T01:44:05.000Z,928.88
2018-11-10T01:45:05.009Z,928.82
2018-11-10T01:46:05.062Z,928.85
2018-11-10T01:47:05.124Z,928.75
2018-11-10T01:48:05.184Z,928.82
2018-11-10T01:49:05.196Z,928.83
2018-11-10T01:50:05.246Z,928.79
2018-11-10T01:51:05.301Z,928.76
2018-11-10T01:52:05.345Z,928.76
2018-11-10T01:53:05.381Z,928.74
2018-11-10T01:54:05.439Z,928.69
2018-11-10T01:55:05.481Z,928.74
2018-11-10T01:56:05.506Z,928.74
2018-11-10T01:57:05.592Z,928.69
2018-11-10T01:58:05.600Z,928.67
2018-11-10T01:59:05.649Z,928.66
2018-11-10T02:00:05.712Z,928.64
2018-11-10T02:01:05.795Z,928.66
2018-11-10T02:02:05.767Z,928.68
2018-11-10T02:03:05.828Z,928.60
2018-11-10T02:04:05.870Z,928.60
2018-11-10T02:05:05.905Z,928.62
2018-11-10T02:06:05.961Z,928.65
2018-11-10T02:07:06.169Z,928.61
2018-11-10T02:08:06.108Z,928.67
2018-11-10T02:09:06.131Z,928.54
2018-11-10T02:10:06.221Z,928.58
2018-11-10T02:11:06.196Z,928.54
2018-11-10T02:12:06.277Z,928.52
2018-11-10T02:13:06.355Z,928.54
2018-11-10T02:14:06.360Z,928.54
2018-11-10T02:15:06.369Z,928.46
2018-11-10T02:16:06.455Z,928.45
2018-11-10T02:17:06.503Z,928.40
2018-11-10T02:18:06.617Z,928.43
2018-11-10T02:19:06.592Z,928.41
2018-11-10T02:20:06.634Z,928.49
2018-11-10T02:21:06.685Z,928.36
2018-11-10T02:22:06.671Z,928.34
2018-11-10T02:23:06.795Z,928.30
2018-11-10T02:24:06.733Z,928.30
2018-11-10T02:25:06.874Z,928.29
2018-11-10T02:26:06.829Z,928.34
2018-11-10T02:27:06.944Z,928.26
2018-11-10T02:28:06.935Z,928.27
2018-11-10T02:29:07.014Z,928.25
2018-11-10T02:30:07.023Z,928.18
2018-11-10T02:31:07.096Z,928.20
2018-11-10T02:32:07.158Z,928.19
2018-11-10T02:33:07.279Z,928.17
2018-11-10T02:34:07.210Z,928.20
2018-11-10T02:35:07.251Z,928.22
2018-11-10T02:36:07.280Z,928.18
2018-11-10T02:37:07.339Z,928.16
2018-11-10T02:38:07.458Z,928.20
2018-11-10T02:39:07.473Z,928.25
2018-11-10T02:40:07.551Z,928.23
2018-11-10T02:41:07.511Z,928.17
2018-11-10T02:42:07.546Z,928.18
2018-11-10T02:43:07.594Z,928.24
2018-11-10T02:44:07.649Z,928.21
2018-11-10T02:45:07.690Z,928.17
2018-11-10T02:46:07.767Z,928.21
2018-11-10T02:47:07.764Z,928.17
2018-11-10T02:48:07.873Z,928.29
2018-11-10T02:49:07.873Z,928.16
2018-11-10T02:50:07.897Z,928.12
2018-11-10T02:51:07.944Z,928.15
2018-11-10T02:52:07.998Z,928.10
2018-11-10T02:53:08.037Z,928.16
2018-11-10T02:54:08.061Z,928.11
2018-11-10T02:55:08.138Z,928.08
2018-11-10T02:56:08.182Z,928.14
2018-11-10T02:57:08.211Z,928.18
2018-11-10T02:58:08.297Z,928.15
2018-11-10T02:59:08.306Z,928.10
2018-11-10T03:00:08.356Z,928.06
2018-11-10T03:01:08.394Z,928.06
2018-11-10T03:02:08.443Z,928.03
2018-11-10T03:03:08.474Z,928.02
2018-11-10T03:04:08.533Z,928.04
2018-11-10T03:05:08.568Z,927.99
2018-11-10T03:06:08.646Z,928.00
2018-11-10T03:07:08.634Z,927.95
2018-11-10T03:08:08.689Z,927.99
2018-11-10T03:09:08.731Z,927.95
2018-11-10T03:10:08.784Z,927.99
2018-11-10T03:11:08.832Z,927.94
2018-11-10T03:12:08.867Z,928.01
2018-11-10T03:13:08.905Z,927.98
2018-11-10T03:14:08.960Z,927.98
2018-11-10T03:15:09.010Z,927.91
2018-11-10T03:16:09.050Z,927.99
2018-11-10T03:17:09.092Z,927.94
2018-11-10T03:18:09.117Z,927.95
2018-11-10T03:19:09.183Z,927.93
2018-11-10T03:20:09.226Z,927.87
2018-11-10T03:21:09.270Z,927.85
2018-11-10T03:22:09.307Z,927.91
2018-11-10T03:23:09.353Z,927.86
2018-11-10T03:24:09.408Z,927.89
2018-11-10T03:25:09.437Z,927.88
2018-11-10T03:26:09.497Z,927.87
2018-11-10T03:27:09.526Z,927.77
2018-11-10T03:28:09.620Z,927.83
2018-11-10T03:29:09.598Z,927.80
2018-11-10T03:30:09.668Z,927.71
2018-11-10T03:31:09.724Z,927.73
2018-11-10T03:32:09.736Z,927.73
2018-11-10T03:33:09.827Z,927.72
2018-11-10T03:34:09.831Z,927.71
2018-11-10T03:35:09.885Z,927.70
2018-11-10T03:36:09.917Z,927.64
2018-11-10T03:37:10.017Z,927.63
2018-11-10T03:38:10.023Z,927.61
2018-11-10T03:39:10.071Z,927.61
2018-11-10T03:40:10.115Z,927.57
2018-11-10T03:41:10.128Z,927.55
2018-11-10T03:42:10.235Z,927.53
2018-11-10T03:43:10.236Z,927.54
2018-11-10T03:44:10.335Z,927.51
2018-11-10T03:45:10.333Z,927.48
2018-11-10T03:46:10.363Z,927.51
2018-11-10T03:47:10.422Z,927.48
2018-11-10T03:48:10.445Z,927.47
2018-11-10T03:49:10.496Z,927.47
2018-11-10T03:50:10.523Z,927.46
2018-11-10T03:51:10.575Z,927.48
2018-11-10T03:52:10.672Z,927.49
2018-11-10T03:53:10.720Z,927.45
2018-11-10T03:54:10.706Z,927.45
2018-11-10T03:55:10.754Z,927.43
2018-11-10T03:56:10.810Z,927.42
2018-11-10T03:57:10.849Z,927.43
2018-11-10T03:58:10.894Z,927.40
2018-11-10T03:59:10.930Z,927.42
2018-11-10T04:00:10.978Z,927.40
2018-11-10T04:01:11.020Z,927.37
2018-11-10T04:02:11.078Z,927.32
2018-11-10T04:03:11.119Z,927.33
2018-11-10T04:04:11.157Z,927.32
2018-11-10T04:05:11.197Z,927.33
2018-11-10T04:06:11.278Z,927.31
2018-11-10T04:07:11.299Z,927.32
2018-11-10T04:08:11.323Z,927.28
2018-11-10T04:09:11.388Z,927.27
2018-11-10T04:10:11.423Z,927.25
2018-11-10T04:11:11.471Z,927.21
2018-11-10T04:12:11.507Z,927.21
2018-11-10T04:13:11.534Z,927.20
2018-11-10T04:14:11.572Z,927.19
2018-11-10T04:15:11.624Z,927.18
2018-11-10T04:16:11.680Z,927.16
2018-11-10T04:17:11.732Z,927.15
2018-11-10T04:18:11.826Z,927.16
2018-11-10T04:19:11.805Z,927.14
2018-11-10T04:20:11.849Z,927.04
2018-11-10T04:21:11.935Z,927.14
2018-11-10T04:22:11.937Z,927.09
2018-11-10T04:23:11.980Z,927.12
2018-11-10T04:24:12.031Z,927.12
2018-11-10T04:25:12.100Z,927.14
2018-11-10T04:26:12.117Z,927.15
2018-11-10T04:27:12.156Z,927.08
2018-11-10T04:28:12.190Z,927.15
2018-11-10T04:29:12.232Z,927.15
2018-11-10T04:30:12.301Z,927.10
2018-11-10T04:31:12.348Z,927.07
2018-11-10T04:32:12.382Z,927.07
2018-11-10T04:33:12.477Z,927.10
2018-11-10T04:34:12.477Z,927.05
2018-11-10T04:35:12.541Z,927.03
2018-11-10T04:36:12.564Z,927.06
2018-11-10T04:37:12.639Z,927.02
2018-11-10T04:38:12.694Z,926.99
2018-11-10T04:39:12.699Z,926.96
2018-11-10T04:40:12.728Z,926.99
2018-11-10T04:41:12.806Z,926.98
2018-11-10T04:42:12.820Z,926.97
2018-11-10T04:43:12.864Z,926.95
2018-11-10T04:44:12.905Z,926.95
2018-11-10T04:45:12.954Z,926.93
2018-11-10T04:46:13.029Z,926.93
2018-11-10T04:47:13.086Z,926.91
2018-11-10T04:48:13.096Z,926.87
2018-11-10T04:49:13.124Z,926.84
2018-11-10T04:50:13.178Z,926.83
2018-11-10T04:51:13.216Z,926.83
2018-11-10T04:52:13.246Z,926.82
2018-11-10T04:53:13.315Z,926.80
2018-11-10T04:54:13.356Z,926.75
2018-11-10T04:55:13.392Z,926.76
2018-11-10T04:56:13.451Z,926.74
2018-11-10T04:57:13.480Z,926.77
2018-11-10T04:58:13.541Z,926.75
2018-11-10T04:59:13.593Z,926.67
2018-11-10T05:00:13.638Z,926.68
2018-11-10T05:01:13.720Z,926.67
2018-11-10T05:02:13.708Z,926.73
2018-11-10T05:03:13.740Z,926.62
2018-11-10T05:04:13.793Z,926.66
2018-11-10T05:05:13.821Z,926.62
2018-11-10T05:06:13.869Z,926.58
2018-11-10T05:07:13.921Z,926.61
2018-11-10T05:08:13.979Z,926.58
2018-11-10T05:09:14.007Z,926.51
2018-11-10T05:10:14.057Z,926.57
2018-11-10T05:11:14.106Z,926.56
2018-11-10T05:12:14.151Z,926.54
2018-11-10T05:13:14.207Z,926.55
2018-11-10T05:14:14.222Z,926.50
2018-11-10T05:15:14.326Z,926.45
2018-11-10T05:16:14.311Z,926.46
2018-11-10T05:17:14.361Z,926.45
2018-11-10T05:18:14.419Z,926.51
2018-11-10T05:19:14.464Z,926.45
2018-11-10T05:20:14.508Z,926.51
2018-11-10T05:21:14.528Z,926.51
2018-11-10T05:22:14.605Z,926.49
2018-11-10T05:23:14.883Z,926.46
2018-11-10T05:24:14.663Z,926.51
2018-11-10T05:25:14.712Z,926.46
2018-11-10T05:26:14.748Z,926.45
2018-11-10T05:27:14.814Z,926.44
2018-11-10T05:28:14.869Z,926.44
2018-11-10T05:29:14.872Z,926.48
2018-11-10T05:30:14.915Z,926.48
2018-11-10T05:31:15.054Z,926.52
2018-11-10T05:32:15.004Z,926.47
2018-11-10T05:33:15.075Z,926.42
2018-11-10T05:34:15.122Z,926.40
2018-11-10T05:35:15.162Z,926.42
2018-11-10T05:36:15.200Z,926.38
2018-11-10T05:37:15.243Z,926.31
2018-11-10T05:38:15.285Z,926.30
2018-11-10T05:39:15.316Z,926.32
2018-11-10T05:40:15.373Z,926.26
2018-11-10T05:41:15.401Z,926.31
2018-11-10T05:42:15.442Z,926.27
2018-11-10T05:43:15.511Z,926.28
2018-11-10T05:44:15.529Z,926.27
2018-11-10T05:45:15.585Z,926.25
2018-11-10T05:46:15.635Z,926.23
2018-11-10T05:47:15.679Z,926.24
2018-11-10T05:48:15.728Z,926.21
2018-11-10T05:49:15.765Z,926.16
2018-11-10T05:50:15.821Z,926.14
2018-11-10T05:51:15.850Z,926.13
2018-11-10T05:52:15.944Z,926.10
2018-11-10T05:53:15.927Z,926.10
2018-11-10T05:54:15.975Z,926.10
2018-11-10T05:55:16.000Z,926.15
2018-11-10T05:56:16.065Z,926.15
2018-11-10T05:57:16.189Z,926.14
2018-11-10T05:58:16.167Z,926.13
2018-11-10T05:59:16.205Z,926.15
2018-11-10T06:00:16.231Z,926.12
2018-11-10T06:01:16.292Z,926.13
2018-11-10T06:02:16.333Z,926.08
2018-11-10T06:03:16.409Z,926.07
2018-11-10T06:04:16.426Z,926.07
2018-11-10T06:05:16.499Z,926.06
2018-11-10T06:06:16.497Z,926.08
2018-11-10T06:07:16.561Z,926.02
2018-11-10T06:08:16.592Z,926.05
2018-11-10T06:09:16.709Z,926.01
2018-11-10T06:10:16.870Z,926.06
2018-11-10T06:11:16.736Z,926.03
2018-11-10T06:12:16.961Z,926.02
2018-11-10T06:13:16.820Z,926.02
2018-11-10T06:14:16.887Z,925.99
2018-11-10T06:15:17.208Z,926.02
2018-11-10T06:16:16.970Z,925.95
2018-11-10T06:17:16.978Z,925.98
2018-11-10T06:18:17.037Z,925.93
2018-11-10T06:19:17.069Z,925.94
2018-11-10T06:20:17.116Z,925.97
2018-11-10T06:21:17.163Z,926.00
2018-11-10T06:22:17.211Z,925.97
2018-11-10T06:23:17.227Z,925.95
2018-11-10T06:24:17.300Z,925.96
2018-11-10T06:25:17.328Z,925.95
2018-11-10T06:26:17.684Z,926.00
2018-11-10T06:27:17.432Z,925.98
2018-11-10T06:28:17.459Z,925.94
2018-11-10T06:29:17.522Z,925.91
2018-11-10T06:30:17.560Z,925.84
2018-11-10T06:31:17.598Z,925.87
2018-11-10T06:32:17.651Z,925.91
2018-11-10T06:33:17.727Z,926.03
2018-11-10T06:34:17.742Z,925.92
2018-11-10T06:35:17.776Z,925.91
2018-11-10T06:36:17.795Z,925.84
2018-11-10T06:37:17.875Z,925.88
2018-11-10T06:38:17.896Z,925.91
2018-11-10T06:39:17.978Z,926.01
2018-11-10T06:40:17.968Z,925.93
2018-11-10T06:41:18.314Z,925.88
2018-11-10T06:42:18.058Z,925.87
2018-11-10T06:43:18.172Z,925.86
2018-11-10T06:44:18.161Z,925.82
2018-11-10T06:45:18.264Z,925.91
2018-11-10T06:46:18.349Z,925.89
2018-11-10T06:47:18.346Z,925.89
2018-11-10T06:48:18.405Z,925.87
2018-11-10T06:49:18.419Z,925.99
2018-11-10T06:50:18.436Z,925.88
2018-11-10T06:51:18.462Z,925.90
2018-11-10T06:52:18.507Z,925.89
2018-11-10T06:53:18.605Z,925.94
2018-11-10T06:54:18.604Z,925.92
2018-11-10T06:55:18.634Z,925.92
2018-11-10T06:56:18.946Z,925.96
2018-11-10T06:57:18.718Z,925.87
2018-11-10T06:58:18.753Z,925.93
2018-11-10T06:59:18.805Z,925.91
2018-11-10T07:00:18.855Z,925.97
2018-11-10T07:01:18.941Z,925.92
2018-11-10T07:02:18.933Z,925.95
2018-11-10T07:03:19.007Z,925.98
2018-11-10T07:04:19.002Z,925.98
2018-11-10T07:05:19.073Z,925.98
2018-11-10T07:06:19.104Z,925.99
2018-11-10T07:07:19.133Z,925.97
2018-11-10T07:08:19.220Z,926.02
2018-11-10T07:09:19.289Z,925.97
2018-11-10T07:10:19.342Z,925.97
2018-11-10T07:11:19.308Z,925.93
2018-11-10T07:12:19.369Z,925.96
2018-11-10T07:13:19.453Z,925.95
2018-11-10T07:14:19.461Z,925.93
2018-11-10T07:15:19.513Z,925.96
2018-11-10T07:16:19.540Z,925.96
2018-11-10T07:17:19.634Z,925.91
2018-11-10T07:18:19.628Z,925.98
2018-11-10T07:19:19.677Z,925.92
2018-11-10T07:20:19.716Z,925.91
2018-11-10T07:21:19.784Z,925.93
2018-11-10T07:22:19.803Z,925.85
2018-11-10T07:23:19.927Z,925.92
2018-11-10T07:24:19.878Z,925.94
2018-11-10T07:25:19.951Z,925.95
2018-11-10T07:26:19.972Z,926.00
2018-11-10T07:27:20.281Z,926.02
2018-11-10T07:28:20.065Z,925.93
2018-11-10T07:29:20.097Z,926.07
2018-11-10T07:30:20.167Z,925.98
2018-11-10T07:31:20.193Z,926.00
2018-11-10T07:32:20.220Z,925.98
2018-11-10T07:33:20.296Z,925.99
2018-11-10T07:34:20.329Z,926.03
2018-11-10T07:35:20.364Z,925.90
2018-11-10T07:36:20.405Z,925.94
2018-11-10T07:37:20.499Z,925.97
2018-11-10T07:38:20.499Z,925.94
2018-11-10T07:39:20.588Z,925.97
2018-11-10T07:40:20.638Z,925.90
2018-11-10T07:41:20.645Z,925.90
2018-11-10T07:42:20.687Z,925.97
2018-11-10T07:43:20.716Z,925.87
2018-11-10T07:44:20.764Z,926.00
2018-11-10T07:45:20.805Z,925.90
2018-11-10T07:46:20.846Z,925.94
2018-11-10T07:47:20.929Z,925.84
2018-11-10T07:48:20.931Z,925.87
2018-11-10T07:49:21.018Z,925.89
2018-11-10T07:50:21.025Z,925.96
2018-11-10T07:51:21.145Z,925.90
2018-11-10T07:52:21.126Z,925.93
2018-11-10T07:53:21.154Z,925.91
2018-11-10T07:54:21.251Z,925.90
2018-11-10T07:55:21.239Z,926.03
2018-11-10T07:56:21.275Z,925.88
2018-11-10T07:57:21.620Z,925.95
2018-11-10T07:58:21.377Z,925.89
2018-11-10T07:59:21.409Z,925.88
2018-11-10T08:00:21.463Z,925.92
2018-11-10T08:01:21.476Z,925.91
2018-11-10T08:02:21.587Z,925.91
2018-11-10T08:03:21.586Z,925.88
2018-11-10T08:04:21.762Z,925.96
2018-11-10T08:05:21.665Z,925.92
2018-11-10T08:06:21.762Z,925.97
2018-11-10T08:07:21.786Z,925.99
2018-11-10T08:08:21.790Z,925.97
2018-11-10T08:09:21.849Z,925.95
2018-11-10T08:10:21.906Z,925.99
2018-11-10T08:11:21.983Z,926.02
2018-11-10T08:12:22.013Z,925.98
2018-11-10T08:13:22.040Z,926.00
2018-11-10T08:14:22.074Z,926.03
2018-11-10T08:15:22.101Z,926.04
2018-11-10T08:16:22.163Z,926.00
2018-11-10T08:17:22.216Z,926.03
2018-11-10T08:18:22.376Z,926.04
2018-11-10T08:19:22.277Z,926.09
2018-11-10T08:20:22.381Z,926.09
2018-11-10T08:21:22.358Z,926.10
2018-11-10T08:22:22.403Z,926.09
2018-11-10T08:23:22.474Z,926.10
2018-11-10T08:24:22.501Z,926.15
2018-11-10T08:25:22.562Z,926.09
2018-11-10T08:26:22.609Z,926.16
2018-11-10T08:27:22.634Z,926.17
2018-11-10T08:28:22.702Z,926.16
2018-11-10T08:29:22.720Z,926.16
2018-11-10T08:30:22.787Z,926.13
2018-11-10T08:31:22.920Z,926.15
2018-11-10T08:32:22.878Z,926.21
2018-11-10T08:33:22.909Z,926.17
2018-11-10T08:34:22.953Z,926.17
2018-11-10T08:35:23.032Z,926.20
2018-11-10T08:36:23.035Z,926.24
2018-11-10T08:37:23.090Z,926.20
2018-11-10T08:38:23.431Z,926.22
2018-11-10T08:39:23.301Z,926.30
2018-11-10T08:40:23.220Z,926.25
2018-11-10T08:41:23.264Z,926.31
2018-11-10T08:42:23.307Z,926.23
2018-11-10T08:43:23.335Z,926.27
2018-11-10T08:44:23.434Z,926.27
2018-11-10T08:45:23.437Z,926.27
2018-11-10T08:46:23.515Z,926.33
2018-11-10T08:47:23.556Z,926.33
2018-11-10T08:48:23.553Z,926.33
2018-11-10T08:49:23.671Z,926.28
2018-11-10T08:50:23.656Z,926.35
2018-11-10T08:51:23.692Z,926.36
2018-11-10T08:52:23.755Z,926.37
2018-11-10T08:53:24.033Z,926.38
2018-11-10T08:54:23.812Z,926.43
2018-11-10T08:55:23.866Z,926.37
2018-11-10T08:56:23.898Z,926.40
2018-11-10T08:57:23.994Z,926.36
2018-11-10T08:58:24.017Z,926.41
2018-11-10T08:59:24.050Z,926.41
2018-11-10T09:00:24.087Z,926.42
2018-11-10T09:01:24.146Z,926.37
2018-11-10T09:02:24.166Z,926.36
2018-11-10T09:03:24.225Z,926.38
2018-11-10T09:04:24.255Z,926.36
2018-11-10T09:05:24.320Z,926.31
2018-11-10T09:06:24.364Z,926.31
2018-11-10T09:07:24.396Z,926.32
2018-11-10T09:08:24.453Z,926.34
2018-11-10T09:09:24.496Z,926.36
2018-11-10T09:10:24.519Z,926.32
2018-11-10T09:11:24.588Z,926.35
2018-11-10T09:12:24.635Z,926.35
2018-11-10T09:13:24.672Z,926.36
2018-11-10T09:14:24.708Z,926.38
2018-11-10T09:15:24.756Z,926.40
2018-11-10T09:16:24.805Z,926.46
2018-11-10T09:17:24.824Z,926.43
2018-11-10T09:18:24.943Z,926.46
2018-11-10T09:19:24.925Z,926.47
2018-11-10T09:20:24.974Z,926.51
2018-11-10T09:21:25.045Z,926.50
2018-11-10T09:22:25.077Z,926.51
2018-11-10T09:23:25.123Z,926.51
2018-11-10T09:24:25.163Z,926.57
2018-11-10T09:25:25.219Z,926.52
2018-11-10T09:26:25.254Z,926.50
2018-11-10T09:27:25.280Z,926.51
2018-11-10T09:28:25.325Z,926.52
2018-11-10T09:29:25.381Z,926.51
2018-11-10T09:30:25.427Z,926.52
2018-11-10T09:31:25.477Z,926.53
2018-11-10T09:32:25.512Z,926.56
2018-11-10T09:33:25.563Z,926.55
2018-11-10T09:34:25.613Z,926.57
2018-11-10T09:35:25.665Z,926.59
2018-11-10T09:36:25.719Z,926.58
2018-11-10T09:37:25.735Z,926.67
2018-11-10T09:38:25.788Z,926.66
2018-11-10T09:39:25.829Z,926.65
2018-11-10T09:40:25.887Z,926.71
2018-11-10T09:41:25.931Z,926.71
2018-11-10T09:42:26.068Z,926.71
2018-11-10T09:43:26.016Z,926.75
2018-11-10T09:44:26.108Z,926.71
2018-11-10T09:45:26.097Z,926.72
2018-11-10T09:46:26.164Z,926.72
2018-11-10T09:47:26.207Z,926.78
2018-11-10T09:48:26.239Z,926.77
2018-11-10T09:49:26.280Z,926.80
2018-11-10T09:50:26.342Z,926.85
2018-11-10T09:51:26.369Z,926.87
2018-11-10T09:52:26.406Z,926.85
2018-11-10T09:53:26.506Z,926.84
2018-11-10T09:54:26.525Z,926.88
2018-11-10T09:55:26.538Z,926.91
2018-11-10T09:56:26.619Z,926.96
2018-11-10T09:57:26.631Z,926.95
2018-11-10T09:58:26.693Z,926.99
2018-11-10T09:59:26.741Z,927.00
2018-11-10T10:00:26.791Z,927.02
2018-11-10T10:01:26.926Z,926.97
2018-11-10T10:02:27.465Z,927.02
2018-11-10T10:03:26.916Z,927.05
2018-11-10T10:04:26.986Z,927.08
2018-11-10T10:05:27.009Z,927.03
2018-11-10T10:06:27.047Z,927.00
2018-11-10T10:07:27.130Z,927.06
2018-11-10T10:08:27.183Z,927.08
2018-11-10T10:09:27.186Z,927.03
2018-11-10T10:10:27.236Z,927.05
2018-11-10T10:11:27.285Z,927.04
2018-11-10T10:12:27.335Z,927.01
2018-11-10T10:13:27.375Z,927.05
2018-11-10T10:14:27.408Z,927.12
2018-11-10T10:15:27.472Z,927.15
2018-11-10T10:16:27.596Z,927.09
2018-11-10T10:17:27.532Z,927.13
2018-11-10T10:18:27.594Z,927.08
2018-11-10T10:19:27.655Z,927.11
2018-11-10T10:20:27.704Z,927.11
2018-11-10T10:21:27.753Z,927.17
2018-11-10T10:22:27.774Z,927.12
2018-11-10T10:23:27.834Z,927.15
2018-11-10T10:24:27.848Z,927.19
2018-11-10T10:25:27.932Z,927.23
2018-11-10T10:26:27.960Z,927.23
2018-11-10T10:27:28.035Z,927.20
2018-11-10T10:28:28.171Z,927.24
2018-11-10T10:29:28.107Z,927.20
2018-11-10T10:30:28.142Z,927.23
2018-11-10T10:31:28.214Z,927.25
2018-11-10T10:32:28.265Z,927.29
2018-11-10T10:33:28.311Z,927.30
2018-11-10T10:34:28.383Z,927.28
2018-11-10T10:35:28.515Z,927.33
2018-11-10T10:36:28.450Z,927.35
2018-11-10T10:37:28.740Z,927.33
2018-11-10T10:38:28.537Z,927.38
2018-11-10T10:39:28.574Z,927.38
2018-11-10T10:40:28.610Z,927.44
2018-11-10T10:41:28.667Z,927.46
2018-11-10T10:42:28.704Z,927.47
2018-11-10T10:43:28.769Z,927.42
2018-11-10T10:44:28.840Z,927.48
2018-11-10T10:45:28.862Z,927.50
2018-11-10T10:46:28.887Z,927.51
2018-11-10T10:47:28.953Z,927.51
2018-11-10T10:49:29.092Z,927.51
2018-11-10T10:50:29.087Z,927.53
2018-11-10T10:51:29.145Z,927.54
2018-11-10T10:52:29.194Z,927.58
2018-11-10T10:53:29.236Z,927.57
2018-11-10T10:54:29.291Z,927.58
2018-11-10T10:55:29.330Z,927.58
2018-11-10T10:56:29.408Z,927.57
2018-11-10T10:57:29.441Z,927.60
2018-11-10T10:58:29.489Z,927.61
2018-11-10T10:59:29.509Z,927.60
2018-11-10T11:00:29.585Z,927.62
2018-11-10T11:01:29.635Z,927.59
2018-11-10T11:02:29.646Z,927.63
2018-11-10T11:03:29.863Z,927.66
2018-11-10T11:04:29.748Z,927.64
2018-11-10T11:05:29.796Z,927.69
2018-11-10T11:06:29.873Z,927.65
2018-11-10T11:07:29.884Z,927.65
2018-11-10T11:08:29.958Z,927.66
2018-11-10T11:09:30.071Z,927.69
2018-11-10T11:10:30.032Z,927.71
2018-11-10T11:11:30.093Z,927.76
2018-11-10T11:12:30.153Z,927.77
2018-11-10T11:13:30.181Z,927.75
2018-11-10T11:14:30.230Z,927.81
2018-11-10T11:15:30.473Z,927.81
2018-11-10T11:16:30.349Z,927.77
2018-11-10T11:17:30.370Z,927.78
2018-11-10T11:18:30.443Z,927.84
2018-11-10T11:19:30.495Z,927.77
2018-11-10T11:20:30.547Z,927.70
2018-11-10T11:21:30.573Z,927.72
2018-11-10T11:22:30.622Z,927.73
2018-11-10T11:23:30.660Z,927.75
2018-11-10T11:24:30.712Z,927.69
2018-11-10T11:25:30.773Z,927.73
2018-11-10T11:26:30.843Z,927.72
2018-11-10T11:27:30.887Z,927.73
2018-11-10T11:28:30.946Z,927.71
2018-11-10T11:29:31.089Z,927.74
2018-11-10T11:30:31.023Z,927.70
2018-11-10T11:31:31.082Z,927.74
2018-11-10T11:32:31.139Z,927.72
2018-11-10T11:33:31.177Z,927.68
2018-11-10T11:34:31.220Z,927.71
2018-11-10T11:35:31.397Z,927.59
2018-11-10T11:36:31.358Z,927.51
2018-11-10T11:37:31.396Z,927.53
2018-11-10T11:38:31.445Z,927.49
2018-11-10T11:39:31.520Z,927.49
2018-11-10T11:40:31.605Z,927.50
2018-11-10T11:41:31.732Z,927.50
2018-11-10T11:42:31.665Z,927.43
2018-11-10T11:43:31.759Z,927.45
2018-11-10T11:44:31.806Z,927.40
2018-11-10T11:45:31.861Z,927.40
2018-11-10T11:46:31.950Z,927.34
2018-11-10T11:47:31.972Z,927.32
2018-11-10T11:48:32.012Z,927.17
2018-11-10T11:49:32.072Z,927.25
2018-11-10T11:50:32.142Z,927.26
2018-11-10T11:51:32.220Z,927.20
2018-11-10T11:52:32.274Z,927.27
2018-11-10T11:53:32.298Z,927.27
2018-11-10T11:54:32.427Z,927.28
2018-11-10T11:55:32.386Z,927.29
2018-11-10T11:56:32.493Z,927.32
2018-11-10T11:57:32.530Z,927.36
2018-11-10T11:58:32.629Z,927.32
2018-11-10T11:59:32.627Z,927.37
2018-11-10T12:00:32.739Z,927.36
2018-11-10T12:01:32.761Z,927.37
2018-11-10T12:02:32.806Z,927.37
2018-11-10T12:03:32.879Z,927.40
2018-11-10T12:04:32.930Z,927.42
2018-11-10T12:05:33.002Z,927.39
2018-11-10T12:06:33.047Z,927.42
2018-11-10T12:07:33.092Z,927.41
2018-11-10T12:08:33.166Z,927.42
2018-11-10T12:09:33.216Z,927.45
2018-11-10T12:10:33.286Z,927.44
2018-11-10T12:11:33.343Z,927.42
2018-11-10T12:12:33.385Z,927.44
2018-11-10T12:13:33.451Z,927.42
2018-11-10T12:14:33.514Z,927.45
2018-11-10T12:15:33.583Z,927.40
2018-11-10T12:16:33.656Z,927.48
2018-11-10T12:17:33.702Z,927.53
2018-11-10T12:18:33.761Z,927.55
2018-11-10T12:19:33.797Z,927.51
2018-11-10T12:20:33.852Z,927.50
2018-11-10T12:21:33.931Z,927.50
2018-11-10T12:22:33.988Z,927.46
2018-11-10T12:23:34.026Z,927.42
2018-11-10T12:24:34.108Z,927.41
2018-11-10T12:25:34.164Z,927.41
2018-11-10T12:26:34.280Z,927.46
2018-11-10T12:27:34.259Z,927.45
2018-11-10T12:28:34.378Z,927.46
2018-11-10T12:29:34.375Z,927.40